Time;durP1;ratioP1;P1;durP2;ratioP2;P2;SDS_P1;SDS_P2;PMS_P1;PMS_P2;Temp;Humidity;BMP_temperature;BMP_pressure;BME280_temperature;BME280_humidity;BME280_pressure;Samples;Min_cycle;Max_cycle;Signal;HPM_P1;HPM_P2
2022/10/03 09:34:32;;;;;;;;;;;;;;;;;;5084016;27;19917;-58
2022/10/03 09:36:59;;;;;;;;;;;;;;;;;;5071722;28;19916;-57
2022/10/03 09:39:25;;;;;;;;;;;;;;;;;;5070938;28;19966;-58
2022/10/03 09:41:51;;;;;;;;;;;;;;;;;;5070601;28;19955;-57
2022/10/03 09:44:17;;;;;;;;;;;;;;;;;;5076776;28;19919;-57
2022/10/03 09:46:43;;;;;;;;;;;;;;;;;;5079641;28;20294;-58
2022/10/03 09:49:10;;;;;;;;;;;;;;;;;;5070183;28;19917;-57
2022/10/03 09:51:35;;;;;;;;;;;;;;;;;;5074941;28;19912;-57
2022/10/03 09:54:01;;;;;;;;;;;;;;;;;;5070818;28;20446;-58
2022/10/03 09:56:27;;;;;;;;;;;;;;;;;;5075194;28;19916;-58
2022/10/03 09:58:54;;;;;;;;;;;;;;;;;;5072085;28;19913;-58
2022/10/03 10:01:20;;;;;;;;;;;;;;;;;;5071251;28;19908;-58
2022/10/03 10:03:46;;;;;;;;;;;;;;;;;;5075678;28;19961;-58
2022/10/03 10:06:12;;;;;;;;;;;;;;;;;;5072380;28;19913;-58
2022/10/03 10:08:38;;;;;;;;;;;;;;;;;;5074555;28;20102;-57
2022/10/03 10:11:04;;;;;;;;;;;;;;;;;;5071785;28;20295;-58
2022/10/03 10:13:30;;;;;;;;;;;;;;;;;;5074702;28;19913;-58
2022/10/03 10:15:55;;;;;;;;;;;;;;;;;;5077544;28;19932;-57
2022/10/03 10:18:21;;;;;;;;;;;;;;;;;;5078486;28;19956;-58
2022/10/03 10:20:47;;;;;;;;;;;;;;;;;;5070767;28;19912;-57
2022/10/03 10:23:13;;;;;;;;;;;;;;;;;;5075718;28;19908;-57
2022/10/03 10:25:41;;;;;;;;;;;;;;;;;;5075523;28;19909;-57
2022/10/03 10:28:07;;;;;;;;;;;;;;;;;;5082740;28;19959;-57
2022/10/03 10:30:32;;;;;;;;;;;;;;;;;;5075299;28;19943;-58
2022/10/03 10:32:58;;;;;;;;;;;;;;;;;;5072982;28;19967;-58
2022/10/03 10:35:24;;;;;;;;;;;;;;;;;;5082350;28;19912;-58
2022/10/03 10:37:53;;;;;;;;;;;;;;;;;;5080886;28;19915;-58
2022/10/03 10:40:19;;;;;;;;;;;;;;;;;;5081300;28;19916;-58
2022/10/03 10:42:45;;;;;;;;;;;;;;;;;;5079944;28;19919;-57
2022/10/03 10:45:11;;;;;;;;;;;;;;;;;;5064383;28;19931;-58
2022/10/03 10:47:37;;;;;;;;;;;;;;;;;;5057115;28;19913;-57
2022/10/03 10:50:03;;;;;;;;;;;;;;;;;;5059587;28;20012;-57
2022/10/03 10:52:29;;;;;;;;;;;;;;;;;;5057795;28;19959;-57
2022/10/03 10:54:55;;;;;;;;;;;;;;;;;;5070105;28;19912;-57
2022/10/03 10:57:24;;;;;;;;;;;;;;;;;;5066359;28;19913;-57
2022/10/03 10:59:50;;;;;;;;;;;;;;;;;;5070040;28;20369;-58
2022/10/03 11:02:16;;;;;;;;;;;;;;;;;;5070611;28;20010;-58
2022/10/03 11:04:41;;;;;;;;;;;;;;;;;;5068062;28;19915;-57
2022/10/03 11:07:07;;;;;;;;;;;;;;;;;;5064480;28;20360;-57
2022/10/03 11:09:34;;;;;;;;;;;;;;;;;;5066656;28;19920;-58
2022/10/03 11:12:00;;;;;;;;;;;;;;;;;;5063550;28;19920;-58
2022/10/03 11:14:27;;;;;;;;;;;;;;;;;;5068448;28;19919;-58
2022/10/03 11:16:53;;;;;;;;;;;;;;;;;;5077563;28;20011;-58
2022/10/03 11:19:19;;;;;;;;;;;;;;;;;;5060949;28;20282;-58
2022/10/03 11:21:45;;;;;;;;;;;;;;;;;;5058094;28;20003;-58
2022/10/03 11:24:11;;;;;;;;;;;;;;;;;;5066338;28;20426;-57
2022/10/03 11:26:38;;;;;;;;;;;;;;;;;;5059649;28;19966;-58
2022/10/03 11:29:04;;;;;;;;;;;;;;;;;;5067482;28;19912;-57
2022/10/03 11:31:30;;;;;;;;;;;;;;;;;;5062709;28;19917;-58
2022/10/03 11:33:56;;;;;;;;;;;;;;;;;;5059526;28;20039;-57
2022/10/03 11:36:21;;;;;;;;;;;;;;;;;;5057959;28;19913;-57
2022/10/03 11:38:47;;;;;;;;;;;;;;;;;;5069184;28;19912;-57
2022/10/03 11:41:13;;;;;;;;;;;;;;;;;;5062730;28;20364;-57
2022/10/03 11:43:39;;;;;;;;;;;;;;;;;;5068161;28;19908;-57
2022/10/03 11:46:05;;;;;;;;;;;;;;;;;;5065992;28;19950;-57
2022/10/03 11:48:31;;;;;;;;;;;;;;;;;;5070484;28;20084;-57
2022/10/03 11:50:58;;;;;;;;;;;;;;;;;;5062519;28;20330;-58
2022/10/03 11:53:24;;;;;;;;;;;;;;;;;;5062543;28;19916;-57
2022/10/03 11:55:50;;;;;;;;;;;;;;;;;;5059227;28;20380;-57
2022/10/03 11:58:17;;;;;;;;;;;;;;;;;;5061713;28;19912;-58
2022/10/03 12:00:42;;;;;;;;;;;;;;;;;;5059315;28;19920;-58
2022/10/03 12:03:09;;;;;;;;;;;;;;;;;;5064817;28;20378;-57
2022/10/03 12:05:35;;;;;;;;;;;;;;;;;;5060916;28;19913;-57
2022/10/03 12:10:45;;;;;;;;;;;;;;;;;;5058913;28;19920;-58
2022/10/03 12:13:13;;;;;;;;;;;;;;;;;;5064170;28;19916;-57
2022/10/03 12:15:39;;;;;;;;;;;;;;;;;;5062826;28;19909;-57
2022/10/03 12:18:05;;;;;;;;;;;;;;;;;;5065278;28;19962;-57
2022/10/03 12:20:31;;;;;;;;;;;;;;;;;;5063390;28;19913;-57
2022/10/03 12:22:57;;;;;;;;;;;;;;;;;;5059173;28;19920;-57
2022/10/03 12:25:23;;;;;;;;;;;;;;;;;;5055457;28;19939;-58
2022/10/03 12:27:49;;;;;;;;;;;;;;;;;;5056413;28;19917;-57
2022/10/03 12:30:15;;;;;;;;;;;;;;;;;;5051408;28;19982;-57
2022/10/03 12:32:41;;;;;;;;;;;;;;;;;;5056886;28;20061;-57
2022/10/03 12:35:07;;;;;;;;;;;;;;;;;;5055181;28;19917;-57
2022/10/03 12:37:33;;;;;;;;;;;;;;;;;;5062585;28;20023;-57
2022/10/03 12:39:59;;;;;;;;;;;;;;;;;;5062367;28;19955;-57
2022/10/03 12:42:25;;;;;;;;;;;;;;;;;;5062694;28;19913;-57
2022/10/03 12:44:51;;;;;;;;;;;;;;;;;;5061538;28;19908;-57
2022/10/03 12:47:17;;;;;;;;;;;;;;;;;;5061197;28;19966;-57
2022/10/03 12:49:44;;;;;;;;;;;;;;;;;;5052595;28;20295;-61
2022/10/03 12:52:10;;;;;;;;;;;;;;;;;;5061589;28;19901;-61
2022/10/03 12:54:36;;;;;;;;;;;;;;;;;;5052858;28;19912;-61
2022/10/03 12:57:02;;;;;;;;;;;;;;;;;;5059764;28;19913;-61
2022/10/03 12:59:30;;;;;;;;;;;;;;;;;;5071445;28;19908;-61
2022/10/03 13:01:56;;;;;;;;;;;;;;;;;;5065175;28;19943;-61
2022/10/03 13:04:22;;;;;;;;;;;;;;;;;;5051833;28;19936;-59
2022/10/03 13:06:48;;;;;;;;;;;;;;;;;;5052965;28;20292;-59
2022/10/03 13:09:15;;;;;;;;;;;;;;;;;;5060612;28;19916;-61
2022/10/03 13:11:47;;;;;;;;;;;;;;;;;;5057747;28;19913;-62
2022/10/03 13:14:14;;;;;;;;;;;;;;;;;;5060063;28;19916;-62
2022/10/03 13:16:40;;;;;;;;;;;;;;;;;;5062111;28;19908;-59
2022/10/03 13:19:06;;;;;;;;;;;;;;;;;;5054837;28;19924;-58
2022/10/03 13:21:33;;;;;;;;;;;;;;;;;;5059673;28;19920;-59
2022/10/03 13:23:59;;;;;;;;;;;;;;;;;;5059514;28;20419;-61
2022/10/03 13:26:26;;;;;;;;;;;;;;;;;;5051660;28;19913;-61
2022/10/03 13:28:51;;;;;;;;;;;;;;;;;;5053662;28;20047;-60
2022/10/03 13:31:17;;;;;;;;;;;;;;;;;;5051138;28;20007;-61
2022/10/03 13:33:43;;;;;;;;;;;;;;;;;;5052912;28;19921;-59
2022/10/03 13:36:11;;;;;;;;;;;;;;;;;;5057314;28;19974;-58
2022/10/03 13:38:37;;;;;;;;;;;;;;;;;;5049956;28;19923;-61
2022/10/03 13:41:03;;;;;;;;;;;;;;;;;;5053978;28;19908;-60
2022/10/03 13:43:31;;;;;;;;;;;;;;;;;;5056484;28;19917;-61
2022/10/03 13:45:57;;;;;;;;;;;;;;;;;;5053950;28;19999;-63
2022/10/03 13:48:23;;;;;;;;;;;;;;;;;;5064074;28;19986;-61
2022/10/03 13:50:51;;;;;;;;;;;;;;;;;;5052247;28;19923;-61
2022/10/03 13:53:17;;;;;;;;;;;;;;;;;;5052899;28;19943;-62
2022/10/03 13:55:43;;;;;;;;;;;;;;;;;;5054368;28;19913;-61
2022/10/03 13:58:09;;;;;;;;;;;;;;;;;;5053800;28;19966;-61
2022/10/03 14:00:35;;;;;;;;;;;;;;;;;;5050168;28;19916;-61
2022/10/03 14:03:01;;;;;;;;;;;;;;;;;;5056789;28;19920;-60
2022/10/03 14:05:27;;;;;;;;;;;;;;;;;;5052907;28;19917;-61
2022/10/03 14:07:54;;;;;;;;;;;;;;;;;;5056844;28;19931;-63
2022/10/03 14:10:20;;;;;;;;;;;;;;;;;;5053415;28;20284;-61
2022/10/03 14:12:45;;;;;;;;;;;;;;;;;;5055016;28;19916;-61
2022/10/03 14:15:11;;;;;;;;;;;;;;;;;;5060315;28;19913;-61
2022/10/03 14:17:38;;;;;;;;;;;;;;;;;;5061363;28;19908;-60
2022/10/03 14:20:06;;;;;;;;;;;;;;;;;;5064892;28;19915;-62
2022/10/03 14:22:32;;;;;;;;;;;;;;;;;;5068182;28;20348;-61
2022/10/03 14:24:58;;;;;;;;;;;;;;;;;;5061027;28;19923;-60
2022/10/03 14:27:24;;;;;;;;;;;;;;;;;;5067032;28;19960;-61
2022/10/03 14:29:50;;;;;;;;;;;;;;;;;;5059714;28;19959;-60
2022/10/03 14:32:16;;;;;;;;;;;;;;;;;;5067476;28;19913;-58
2022/10/03 14:34:42;;;;;;;;;;;;;;;;;;5068404;28;20343;-58
2022/10/03 14:37:08;;;;;;;;;;;;;;;;;;5064560;28;19958;-59
2022/10/03 14:39:35;;;;;;;;;;;;;;;;;;5065922;28;20647;-59
2022/10/03 14:42:01;;;;;;;;;;;;;;;;;;5066021;28;20003;-59
2022/10/03 14:44:27;;;;;;;;;;;;;;;;;;5066386;28;20321;-59
2022/10/03 14:46:53;;;;;;;;;;;;;;;;;;5067295;28;19952;-60
2022/10/03 14:49:19;;;;;;;;;;;;;;;;;;5059488;28;20011;-59
2022/10/03 14:51:46;;;;;;;;;;;;;;;;;;5061603;28;19916;-59
2022/10/03 14:54:12;;;;;;;;;;;;;;;;;;5062111;28;19916;-59
2022/10/03 14:56:38;;;;;;;;;;;;;;;;;;5060314;28;19913;-59
2022/10/03 14:59:04;;;;;;;;;;;;;;;;;;5069872;28;20453;-59
2022/10/03 15:01:29;;;;;;;;;;;;;;;;;;5078721;28;19913;-59
2022/10/03 15:03:55;;;;;;;;;;;;;;;;;;5062926;28;19916;-59
2022/10/03 15:06:21;;;;;;;;;;;;;;;;;;5066149;28;19921;-60
2022/10/03 15:08:47;;;;;;;;;;;;;;;;;;5062190;28;19916;-59
2022/10/03 15:11:13;;;;;;;;;;;;;;;;;;5065952;28;19919;-59
2022/10/03 15:13:39;;;;;;;;;;;;;;;;;;5063768;28;19924;-59
2022/10/03 15:16:05;;;;;;;;;;;;;;;;;;5061232;28;19913;-59
2022/10/03 15:18:31;;;;;;;;;;;;;;;;;;5062578;28;19970;-60
2022/10/03 15:20:57;;;;;;;;;;;;;;;;;;5066429;28;19916;-59
2022/10/03 15:23:23;;;;;;;;;;;;;;;;;;5064328;28;20340;-59
2022/10/03 15:25:51;;;;;;;;;;;;;;;;;;5065572;28;19920;-60
2022/10/03 15:28:17;;;;;;;;;;;;;;;;;;5060468;28;19916;-60
2022/10/03 15:30:43;;;;;;;;;;;;;;;;;;5070574;28;19912;-60
2022/10/03 15:33:09;;;;;;;;;;;;;;;;;;5064047;28;19981;-59
2022/10/03 15:35:38;;;;;;;;;;;;;;;;;;5071553;28;19916;-59
2022/10/03 15:38:03;;;;;;;;;;;;;;;;;;5062759;28;19919;-59
2022/10/03 15:40:30;;;;;;;;;;;;;;;;;;5070292;28;19912;-59
2022/10/03 15:42:56;;;;;;;;;;;;;;;;;;5062060;28;19913;-59
2022/10/03 15:45:21;;;;;;;;;;;;;;;;;;5056633;28;19920;-60
2022/10/03 15:47:48;;;;;;;;;;;;;;;;;;5059963;28;19919;-59
2022/10/03 15:50:15;;;;;;;;;;;;;;;;;;5054769;28;19935;-59
2022/10/03 15:52:41;;;;;;;;;;;;;;;;;;5055612;28;19927;-59
2022/10/03 15:55:08;;;;;;;;;;;;;;;;;;5056465;28;20402;-60
2022/10/03 15:57:34;;;;;;;;;;;;;;;;;;5058259;28;20657;-59
2022/10/03 16:00:00;;;;;;;;;;;;;;;;;;5056211;28;19908;-60
2022/10/03 16:02:25;;;;;;;;;;;;;;;;;;5059095;28;19916;-59
2022/10/03 16:04:53;;;;;;;;;;;;;;;;;;5060461;28;19920;-59
2022/10/03 16:07:19;;;;;;;;;;;;;;;;;;5062825;28;20026;-60
2022/10/03 16:09:45;;;;;;;;;;;;;;;;;;5058239;28;19911;-60
2022/10/03 16:12:11;;;;;;;;;;;;;;;;;;5066942;28;19917;-60
2022/10/03 16:14:37;;;;;;;;;;;;;;;;;;5066738;28;20420;-60
2022/10/03 16:17:02;;;;;;;;;;;;;;;;;;5058784;28;19913;-60
2022/10/03 16:19:28;;;;;;;;;;;;;;;;;;5058706;28;20399;-59
2022/10/03 16:21:54;;;;;;;;;;;;;;;;;;5067540;28;19915;-59
2022/10/03 16:24:20;;;;;;;;;;;;;;;;;;5054629;28;20674;-59
2022/10/03 16:26:46;;;;;;;;;;;;;;;;;;5052768;28;19924;-60
2022/10/03 16:29:12;;;;;;;;;;;;;;;;;;5060943;28;20494;-60
2022/10/03 16:31:38;;;;;;;;;;;;;;;;;;5059595;28;19917;-59
2022/10/03 16:34:04;;;;;;;;;;;;;;;;;;5058698;28;19975;-60
2022/10/03 16:36:30;;;;;;;;;;;;;;;;;;5055142;28;19982;-60
2022/10/03 16:38:56;;;;;;;;;;;;;;;;;;5064949;28;19919;-60
2022/10/03 16:41:22;;;;;;;;;;;;;;;;;;5060464;28;19970;-59
2022/10/03 16:43:47;;;;;;;;;;;;;;;;;;5057199;28;20359;-60
2022/10/03 16:46:13;;;;;;;;;;;;;;;;;;5064392;28;19912;-60
2022/10/03 16:51:24;;;;;;;;;;;;;;;;;;5056023;28;20027;-59
2022/10/03 16:53:50;;;;;;;;;;;;;;;;;;5069501;28;20003;-60
2022/10/03 16:56:16;;;;;;;;;;;;;;;;;;5056531;28;19923;-59
2022/10/03 16:58:42;;;;;;;;;;;;;;;;;;5057751;28;19909;-60
2022/10/03 17:01:08;;;;;;;;;;;;;;;;;;5059316;28;19919;-59
2022/10/03 17:03:33;;;;;;;;;;;;;;;;;;5062922;28;19959;-62
2022/10/03 17:06:00;;;;;;;;;;;;;;;;;;5060981;28;19929;-60
2022/10/03 17:08:26;;;;;;;;;;;;;;;;;;5060354;28;20372;-60
2022/10/03 17:10:51;;;;;;;;;;;;;;;;;;5062147;28;19974;-58
2022/10/03 17:13:17;;;;;;;;;;;;;;;;;;5065042;28;19917;-59
2022/10/03 17:15:43;;;;;;;;;;;;;;;;;;5063127;28;19916;-59
2022/10/03 17:18:09;;;;;;;;;;;;;;;;;;5064643;28;19912;-60
2022/10/03 17:20:35;;;;;;;;;;;;;;;;;;5063658;28;19948;-59
2022/10/03 17:23:01;;;;;;;;;;;;;;;;;;5059624;28;19916;-59
2022/10/03 17:25:27;;;;;;;;;;;;;;;;;;5057621;28;19913;-60
2022/10/03 17:27:53;;;;;;;;;;;;;;;;;;5057352;28;19939;-59
2022/10/03 17:30:18;;;;;;;;;;;;;;;;;;5059755;28;19994;-59
2022/10/03 17:32:44;;;;;;;;;;;;;;;;;;5063291;28;19928;-59
2022/10/03 17:35:10;;;;;;;;;;;;;;;;;;5061222;28;19996;-63
2022/10/03 17:37:36;;;;;;;;;;;;;;;;;;5065966;28;19957;-59
2022/10/03 17:40:02;;;;;;;;;;;;;;;;;;5061718;28;19940;-59
2022/10/03 17:42:30;;;;;;;;;;;;;;;;;;5066474;28;20626;-59
2022/10/03 17:44:56;;;;;;;;;;;;;;;;;;5062441;28;20003;-59
2022/10/03 17:47:22;;;;;;;;;;;;;;;;;;5061927;28;19917;-59
2022/10/03 17:49:48;;;;;;;;;;;;;;;;;;5054647;28;20533;-60
2022/10/03 17:52:14;;;;;;;;;;;;;;;;;;5060483;28;20257;-59
2022/10/03 17:54:40;;;;;;;;;;;;;;;;;;5060196;28;19928;-59
2022/10/03 17:57:07;;;;;;;;;;;;;;;;;;5063894;28;20352;-60
2022/10/03 17:59:33;;;;;;;;;;;;;;;;;;5058646;28;20053;-59
2022/10/03 18:02:00;;;;;;;;;;;;;;;;;;5066885;28;20530;-59
2022/10/03 18:04:27;;;;;;;;;;;;;;;;;;5064128;28;20291;-59
2022/10/03 18:06:53;;;;;;;;;;;;;;;;;;5070631;28;19919;-58
2022/10/03 18:09:19;;;;;;;;;;;;;;;;;;5063527;28;19922;-59
2022/10/03 18:11:46;;;;;;;;;;;;;;;;;;5071097;28;19965;-58
2022/10/03 18:14:12;;;;;;;;;;;;;;;;;;5067468;28;20382;-58
2022/10/03 18:16:38;;;;;;;;;;;;;;;;;;5071682;28;19909;-58
2022/10/03 18:19:04;;;;;;;;;;;;;;;;;;5064759;28;19913;-58
2022/10/03 18:21:31;;;;;;;;;;;;;;;;;;5061621;28;20276;-59
2022/10/03 18:23:57;;;;;;;;;;;;;;;;;;5062759;28;19978;-59
2022/10/03 18:26:23;;;;;;;;;;;;;;;;;;5072643;28;19913;-59
2022/10/03 18:28:49;;;;;;;;;;;;;;;;;;5063166;28;20550;-58
2022/10/03 18:31:14;;;;;;;;;;;;;;;;;;5065707;28;19912;-59
2022/10/03 18:33:41;;;;;;;;;;;;;;;;;;5059194;28;20371;-59
2022/10/03 18:36:07;;;;;;;;;;;;;;;;;;5061482;28;19913;-58
2022/10/03 18:38:33;;;;;;;;;;;;;;;;;;5064388;28;19919;-58
2022/10/03 18:40:59;;;;;;;;;;;;;;;;;;5066238;28;19916;-58
2022/10/03 18:43:25;;;;;;;;;;;;;;;;;;5064088;28;19909;-58
2022/10/03 18:45:51;;;;;;;;;;;;;;;;;;5064740;28;19920;-59
2022/10/03 18:48:17;;;;;;;;;;;;;;;;;;5063768;28;19950;-58
2022/10/03 18:50:43;;;;;;;;;;;;;;;;;;5066215;28;19908;-59
2022/10/03 18:53:09;;;;;;;;;;;;;;;;;;5065860;28;19928;-58
2022/10/03 18:55:35;;;;;;;;;;;;;;;;;;5067899;28;20390;-59
2022/10/03 18:58:01;;;;;;;;;;;;;;;;;;5060924;28;19942;-58
2022/10/03 19:00:27;;;;;;;;;;;;;;;;;;5058129;28;20587;-58
2022/10/03 19:02:53;;;;;;;;;;;;;;;;;;5055533;28;19951;-59
2022/10/03 19:05:18;;;;;;;;;;;;;;;;;;5073330;28;19912;-59
2022/10/03 19:07:44;;;;;;;;;;;;;;;;;;5064623;28;19962;-59
2022/10/03 19:10:10;;;;;;;;;;;;;;;;;;5064921;28;19936;-58
2022/10/03 19:12:38;;;;;;;;;;;;;;;;;;5056513;28;19917;-58
2022/10/03 19:15:04;;;;;;;;;;;;;;;;;;5059840;28;19920;-58
2022/10/03 19:17:30;;;;;;;;;;;;;;;;;;5063415;28;19916;-59
2022/10/03 19:19:55;;;;;;;;;;;;;;;;;;5060496;28;19920;-59
2022/10/03 19:22:21;;;;;;;;;;;;;;;;;;5063810;28;19912;-58
2022/10/03 19:24:47;;;;;;;;;;;;;;;;;;5065820;28;19909;-59
2022/10/03 19:27:13;;;;;;;;;;;;;;;;;;5056124;28;19967;-59
2022/10/03 19:29:39;;;;;;;;;;;;;;;;;;5056672;28;19924;-59
2022/10/03 19:32:05;;;;;;;;;;;;;;;;;;5061555;28;19913;-58
2022/10/03 19:34:31;;;;;;;;;;;;;;;;;;5058238;28;19928;-58
2022/10/03 19:36:57;;;;;;;;;;;;;;;;;;5053657;28;19913;-59
2022/10/03 19:39:23;;;;;;;;;;;;;;;;;;5056440;28;20411;-59
2022/10/03 19:41:51;;;;;;;;;;;;;;;;;;5053939;28;20268;-58
2022/10/03 19:44:17;;;;;;;;;;;;;;;;;;5053452;28;19920;-58
2022/10/03 19:46:42;;;;;;;;;;;;;;;;;;5058937;28;19939;-59
2022/10/03 19:49:08;;;;;;;;;;;;;;;;;;5061827;28;19965;-58
2022/10/03 19:51:34;;;;;;;;;;;;;;;;;;5059660;28;19920;-59
2022/10/03 19:54:02;;;;;;;;;;;;;;;;;;5069636;28;19912;-59
2022/10/03 19:56:27;;;;;;;;;;;;;;;;;;5061824;28;19919;-59
2022/10/03 19:58:53;;;;;;;;;;;;;;;;;;5065727;28;19917;-58
2022/10/03 20:01:19;;;;;;;;;;;;;;;;;;5057449;28;20363;-59
2022/10/03 20:03:46;;;;;;;;;;;;;;;;;;5065787;28;19912;-59
2022/10/03 20:06:12;;;;;;;;;;;;;;;;;;5058633;28;19921;-58
2022/10/03 20:08:37;;;;;;;;;;;;;;;;;;5065414;28;20382;-59
2022/10/03 20:11:03;;;;;;;;;;;;;;;;;;5060754;28;19999;-59
2022/10/03 20:13:29;;;;;;;;;;;;;;;;;;5058638;28;20379;-58
2022/10/03 20:15:55;;;;;;;;;;;;;;;;;;5061765;28;19935;-59
2022/10/03 20:18:21;;;;;;;;;;;;;;;;;;5065416;28;19916;-59
2022/10/03 20:20:47;;;;;;;;;;;;;;;;;;5060227;28;19916;-59
2022/10/03 20:23:13;;;;;;;;;;;;;;;;;;5059541;28;19924;-59
2022/10/03 20:25:39;;;;;;;;;;;;;;;;;;5061847;28;19917;-59
2022/10/03 20:28:05;;;;;;;;;;;;;;;;;;5063714;28;19912;-59
2022/10/03 20:30:30;;;;;;;;;;;;;;;;;;5056201;28;20046;-59
2022/10/03 20:32:56;;;;;;;;;;;;;;;;;;5053590;28;19927;-59
2022/10/03 20:35:22;;;;;;;;;;;;;;;;;;5058538;28;19913;-59
2022/10/03 20:37:48;;;;;;;;;;;;;;;;;;5054822;28;20269;-59
2022/10/03 20:40:15;;;;;;;;;;;;;;;;;;5055163;28;20073;-59
2022/10/03 20:42:45;;;;;;;;;;;;;;;;;;5055904;28;20388;-59
2022/10/03 20:45:11;;;;;;;;;;;;;;;;;;5059258;28;19919;-59
2022/10/03 20:47:37;;;;;;;;;;;;;;;;;;5059747;28;20367;-59
2022/10/03 20:50:03;;;;;;;;;;;;;;;;;;5056913;28;19909;-58
2022/10/03 20:52:28;;;;;;;;;;;;;;;;;;5058526;28;19916;-59
2022/10/03 20:54:54;;;;;;;;;;;;;;;;;;5060998;28;20297;-58
2022/10/03 20:57:20;;;;;;;;;;;;;;;;;;5054136;28;19919;-58
2022/10/03 20:59:46;;;;;;;;;;;;;;;;;;5059146;28;20368;-58
2022/10/03 21:02:12;;;;;;;;;;;;;;;;;;5054919;28;19915;-59
2022/10/03 21:04:38;;;;;;;;;;;;;;;;;;5059038;28;20399;-58
2022/10/03 21:07:04;;;;;;;;;;;;;;;;;;5049663;28;19917;-58
2022/10/03 21:09:30;;;;;;;;;;;;;;;;;;5052233;28;20433;-59
2022/10/03 21:11:56;;;;;;;;;;;;;;;;;;5052327;28;19908;-59
2022/10/03 21:14:21;;;;;;;;;;;;;;;;;;5049090;28;19913;-59
2022/10/03 21:16:47;;;;;;;;;;;;;;;;;;5060018;28;20003;-59
2022/10/03 21:19:13;;;;;;;;;;;;;;;;;;5050964;28;20397;-58
2022/10/03 21:21:39;;;;;;;;;;;;;;;;;;5057857;28;20402;-58
2022/10/03 21:24:05;;;;;;;;;;;;;;;;;;5054875;28;19917;-58
2022/10/03 21:26:31;;;;;;;;;;;;;;;;;;5057030;28;19908;-58
2022/10/03 21:28:57;;;;;;;;;;;;;;;;;;5057034;28;20104;-59
2022/10/03 21:31:23;;;;;;;;;;;;;;;;;;5055348;28;19913;-58
2022/10/03 21:33:50;;;;;;;;;;;;;;;;;;5055695;28;19928;-58
2022/10/03 21:36:16;;;;;;;;;;;;;;;;;;5052988;28;20114;-58
2022/10/03 21:38:42;;;;;;;;;;;;;;;;;;5049733;28;19955;-58
2022/10/03 21:41:08;;;;;;;;;;;;;;;;;;5051695;28;20287;-58
2022/10/03 21:43:33;;;;;;;;;;;;;;;;;;5055812;28;19999;-58
2022/10/03 21:45:59;;;;;;;;;;;;;;;;;;5055964;28;19919;-58
2022/10/03 21:48:25;;;;;;;;;;;;;;;;;;5057825;28;20374;-58
2022/10/03 21:50:51;;;;;;;;;;;;;;;;;;5062360;28;19912;-58
2022/10/03 21:53:17;;;;;;;;;;;;;;;;;;5054536;28;19920;-58
2022/10/03 21:55:43;;;;;;;;;;;;;;;;;;5055010;28;19944;-59
2022/10/03 21:58:09;;;;;;;;;;;;;;;;;;5058027;28;20124;-59
2022/10/03 22:00:35;;;;;;;;;;;;;;;;;;5053218;28;20253;-58
2022/10/03 22:03:01;;;;;;;;;;;;;;;;;;5053012;28;19962;-58
2022/10/03 22:05:27;;;;;;;;;;;;;;;;;;5058279;28;19913;-58
2022/10/03 22:07:53;;;;;;;;;;;;;;;;;;5055583;28;19958;-59
2022/10/03 22:10:18;;;;;;;;;;;;;;;;;;5059195;28;19915;-58
2022/10/03 22:12:44;;;;;;;;;;;;;;;;;;5053309;28;19909;-58
2022/10/03 22:15:10;;;;;;;;;;;;;;;;;;5059882;28;19909;-58
2022/10/03 22:17:36;;;;;;;;;;;;;;;;;;5060227;28;19912;-58
2022/10/03 22:20:02;;;;;;;;;;;;;;;;;;5055319;28;19908;-58
2022/10/03 22:22:28;;;;;;;;;;;;;;;;;;5053030;28;19943;-59
2022/10/03 22:24:54;;;;;;;;;;;;;;;;;;5056677;28;19917;-58
2022/10/03 22:27:20;;;;;;;;;;;;;;;;;;5054405;28;19920;-59
2022/10/03 22:29:46;;;;;;;;;;;;;;;;;;5051435;28;19913;-59
2022/10/03 22:32:12;;;;;;;;;;;;;;;;;;5053232;28;19931;-59
2022/10/03 22:34:38;;;;;;;;;;;;;;;;;;5052475;28;19917;-59
2022/10/03 22:37:04;;;;;;;;;;;;;;;;;;5048007;28;19920;-59
2022/10/03 22:39:30;;;;;;;;;;;;;;;;;;5051821;28;20357;-58
2022/10/03 22:41:56;;;;;;;;;;;;;;;;;;5055583;28;19908;-58
2022/10/03 22:44:21;;;;;;;;;;;;;;;;;;5055385;28;19919;-58
2022/10/03 22:46:47;;;;;;;;;;;;;;;;;;5061375;28;19912;-59
2022/10/03 22:49:13;;;;;;;;;;;;;;;;;;5059414;28;19959;-58
2022/10/03 22:51:39;;;;;;;;;;;;;;;;;;5067005;28;20323;-58
2022/10/03 22:54:05;;;;;;;;;;;;;;;;;;5060663;28;19912;-58
2022/10/03 22:56:31;;;;;;;;;;;;;;;;;;5054143;28;19909;-57
2022/10/03 22:58:57;;;;;;;;;;;;;;;;;;5059749;28;20022;-57
2022/10/03 23:01:23;;;;;;;;;;;;;;;;;;5057615;28;19916;-58
2022/10/03 23:03:49;;;;;;;;;;;;;;;;;;5061019;28;19947;-58
2022/10/03 23:06:15;;;;;;;;;;;;;;;;;;5065567;28;19957;-58
2022/10/03 23:08:40;;;;;;;;;;;;;;;;;;5055195;28;19912;-58
2022/10/03 23:11:06;;;;;;;;;;;;;;;;;;5056271;28;20356;-58
2022/10/03 23:13:32;;;;;;;;;;;;;;;;;;5053272;28;19913;-58
2022/10/03 23:15:58;;;;;;;;;;;;;;;;;;5058811;28;20419;-58
2022/10/03 23:18:24;;;;;;;;;;;;;;;;;;5059203;28;20023;-58
2022/10/03 23:20:50;;;;;;;;;;;;;;;;;;5054012;28;19924;-58
2022/10/03 23:23:16;;;;;;;;;;;;;;;;;;5064941;28;20380;-58
2022/10/03 23:25:42;;;;;;;;;;;;;;;;;;5055888;28;20003;-58
2022/10/03 23:28:08;;;;;;;;;;;;;;;;;;5064340;28;19909;-58
2022/10/03 23:30:33;;;;;;;;;;;;;;;;;;5062934;28;19940;-59
2022/10/03 23:32:59;;;;;;;;;;;;;;;;;;5056575;28;19925;-58
2022/10/03 23:35:25;;;;;;;;;;;;;;;;;;5056786;28;19913;-58
2022/10/03 23:37:51;;;;;;;;;;;;;;;;;;5056487;28;19915;-58
2022/10/03 23:40:17;;;;;;;;;;;;;;;;;;5060480;28;19913;-59
2022/10/03 23:42:43;;;;;;;;;;;;;;;;;;5057386;28;19915;-58
2022/10/03 23:45:09;;;;;;;;;;;;;;;;;;5060397;28;19913;-59
2022/10/03 23:47:35;;;;;;;;;;;;;;;;;;5059051;28;19934;-58
2022/10/03 23:50:01;;;;;;;;;;;;;;;;;;5057912;28;19908;-58
2022/10/03 23:52:27;;;;;;;;;;;;;;;;;;5059866;28;19970;-58
2022/10/03 23:54:53;;;;;;;;;;;;;;;;;;5065547;28;19970;-58
2022/10/03 23:57:19;;;;;;;;;;;;;;;;;;5055744;28;19951;-58
2022/10/03 23:59:45;;;;;;;;;;;;;;;;;;5057913;28;19909;-59
